Husum, Germany

7:20 AM CEST on August 30, 2014 (GMT +0200)
Niegras | Change Station
CLOSE
Current Station
Personal Weather Station
Location: Husum, SCHLESWIG-HOLSTEIN
Elevation: 3 ft
Nearby Weather Stations

Elev 3 ft 54.49 °N, 9.04 °E | Updated 19 minutes ago

Mostly Cloudy
Mostly Cloudy
60.3 °F
Feels Like 60.3 °F
N
0.0
Wind Variable Wind from NE
Gusts 0.0 mph

Today
High -- | Low -- °F
--% Chance of Precip.
Yesterday
High -- | Low -- °F
Precip. -- in
6:26 AM 8:20 PM
Waxing Crescent, 19% visible
Pressure 29.89 in
Visibility 5.6 miles
Clouds Mostly Cloudy 12000 ft
Dew Point 55 °F
Humidity 84%
Rainfall 0.00 in
Snow Depth Not available.
UV 2.4 out of 12
Pollen Not available.
Air Quality Not available.
Flu Activity Not available.
METAR ETGG 300420Z 17010KT 9000 BKN120 15/13 Q1012 BLU

More Conditions Fewer Conditions

Pressure 29.89 in
Visibility 5.6 miles
Clouds Mostly Cloudy 12000 ft
Dew Point 55 °F
Humidity 84%
Rainfall 0.00 in
Snow Depth Not available.
UV 2.4 out of 12
Pollen Not available.
Air Quality Not available.
Flu Activity Not available.
METAR ETGG 300420Z 17010KT 9000 BKN120 15/13 Q1012 BLU

More Conditions Fewer Conditions

10-Day Weather Forecast

Almanac

Astronomy

Aug. 30, 2014 Rise Set
Actual Time 6:26 AM CEST 8:20 PM CEST
Civil Twilight 5:48 AM CEST 8:58 PM CEST
Nautical Twilight 5:00 AM CEST 9:45 PM CEST
Astronomical Twilight 4:05 AM CEST 10:40 PM CEST
Moon 11:46 AM CEST 9:52 PM CEST
Length of Visible Light 15h 09m
Length of Day
13h 53m
Tomorrow will be 4m 16s shorter.
Waxing Crescent, 19% of the Moon is Illuminated
Today
Waxing Crescent
Sep 2
First Quarter
Sep 8
Full
Sep 15
Last Quarter
Sep 24
New

Yesterday's Extremes

Country Highs Country Lows

Community

WunderPhotos

Upload Photos

1,748,465 photos uploaded!

Nearby

Snow Depth

Not available.

Earthquake Activity

City Distance Mag. Time & Date
No recent earthquake activity has been reported nearby.
Minimum magnitude displayed is 2.5.

Coastal Water Temperatures

Place Temperature
No Stations Reporting

Nearby Weather Stations